Wabana, Canada
Current Conditions -  °F | °C
As of 11:00 PM on Friday 21 Nov 2014 (Local Time) from CYYT Reporting Station
Overcast Overcast  
Wind Chill: 20°   Ceiling: 3500
Heat Index: 32°   Visibility: 15mi
Dew Point: 25°   Wind: 21mph
Humidity: 75%   Direction: 250°WSW
Pressure: 29.44"   Gusts: 29mph
Location:  47.65°N, 52.93°W
Report Text: CYYT 220200Z 25018G25KT 15SM BKN035 OVC120 M00/M04 A2944 RMK SC6AC2 SLP975
Loading
Personal Weather Stations






























Interactive Weather Map New forecast layout! Learn more

10-Day Weather Forecast

Advertisements
Track Severe Weather on mobile